CheckWX is a tool to help pilots better visualize weather data.  It is not intended as a substitute for an official pre-flight weather briefing.

05:31:47 UTC

ENVR METAR
Værøy Heliport
Værøy, Norway
Current

14 hours ago

ENVR 191550Z 35023KT 9999 FEW012 01/M05 Q0989
Observed
Feb-19 @ 15:50 UTC
Wind
  • 350° at 23 KTS
Visibility
10,000+ meters
Flight Rules
VFR
Cloud Levels
  • Few at 1,200' AGL
Temperature
C / 34°F
Dewpoint
-5°C / 23°F
Humidity
65%
Altimeter
29.2" Hg
Pressure
988.92 hPa
Previous

15 hours ago

ENVR 191450Z 02033KT 9999 FEW012 01/M04 Q0987
Observed
Feb-19 @ 14:50 UTC
Wind
  • 020° at 33 KTS
Visibility
10,000+ meters
Flight Rules
VFR
Cloud Levels
  • Few at 1,200' AGL
Temperature
C / 34°F
Dewpoint
-4°C / 25°F
Humidity
70%
Altimeter
29.14" Hg
Pressure
986.92 hPa
Previous

16 hours ago

ENVR 191350Z 03026KT 9999 VCSH FEW009 SCT015 BKN036 02/M01 Q0985
Observed
Feb-19 @ 13:50 UTC
Wind
  • 030° at 26 KTS
Visibility
10,000+ meters
Flight Rules
VFR
Cloud Levels
  • Few at 900' AGL
  • Scattered at 1,500' AGL
  • Broken at 3,600' AGL
Temperature
C / 36°F
Dewpoint
-1°C / 30°F
Humidity
81%
Altimeter
29.08" Hg
Pressure
984.92 hPa